sensor_id;sensor_type;location;lat;lon;timestamp;P1;durP1;ratioP1;P2;durP2;ratioP2
36383;SDS011;22418;51.210;6.976;2023-05-25T00:00:11;29.67;;;9.10;;
36383;SDS011;22418;51.210;6.976;2023-05-25T00:02:42;24.58;;;9.10;;
36383;SDS011;22418;51.210;6.976;2023-05-25T00:05:13;25.85;;;8.55;;
36383;SDS011;22418;51.210;6.976;2023-05-25T00:07:44;26.90;;;9.50;;
36383;SDS011;22418;51.210;6.976;2023-05-25T00:10:14;30.60;;;9.17;;
36383;SDS011;22418;51.210;6.976;2023-05-25T00:12:45;25.63;;;8.57;;
36383;SDS011;22418;51.210;6.976;2023-05-25T00:15:16;27.27;;;8.48;;
36383;SDS011;22418;51.210;6.976;2023-05-25T00:17:47;32.43;;;9.17;;
36383;SDS011;22418;51.210;6.976;2023-05-25T00:20:17;25.17;;;8.95;;
36383;SDS011;22418;51.210;6.976;2023-05-25T00:22:48;23.43;;;8.73;;
36383;SDS011;22418;51.210;6.976;2023-05-25T00:25:18;26.27;;;9.33;;
36383;SDS011;22418;51.210;6.976;2023-05-25T00:27:49;27.02;;;9.25;;
36383;SDS011;22418;51.210;6.976;2023-05-25T00:30:20;22.77;;;9.20;;
36383;SDS011;22418;51.210;6.976;2023-05-25T00:32:51;26.00;;;9.37;;
36383;SDS011;22418;51.210;6.976;2023-05-25T00:35:22;28.65;;;10.75;;
36383;SDS011;22418;51.210;6.976;2023-05-25T00:37:53;33.90;;;10.70;;
36383;SDS011;22418;51.210;6.976;2023-05-25T00:40:24;28.98;;;9.60;;
36383;SDS011;22418;51.210;6.976;2023-05-25T00:42:55;30.23;;;9.53;;
36383;SDS011;22418;51.210;6.976;2023-05-25T00:45:29;26.25;;;9.50;;
36383;SDS011;22418;51.210;6.976;2023-05-25T00:48:00;27.60;;;9.23;;
36383;SDS011;22418;51.210;6.976;2023-05-25T00:53:05;30.00;;;8.82;;
36383;SDS011;22418;51.210;6.976;2023-05-25T00:55:43;26.85;;;9.13;;
36383;SDS011;22418;51.210;6.976;2023-05-25T00:58:19;37.00;;;11.73;;
36383;SDS011;22418;51.210;6.976;2023-05-25T01:00:53;34.08;;;9.88;;
36383;SDS011;22418;51.210;6.976;2023-05-25T01:03:26;28.88;;;9.65;;
36383;SDS011;22418;51.210;6.976;2023-05-25T01:05:59;27.67;;;9.48;;
36383;SDS011;22418;51.210;6.976;2023-05-25T01:08:33;36.55;;;10.63;;
36383;SDS011;22418;51.210;6.976;2023-05-25T01:11:05;29.83;;;9.43;;
36383;SDS011;22418;51.210;6.976;2023-05-25T01:13:40;30.13;;;10.20;;
36383;SDS011;22418;51.210;6.976;2023-05-25T01:16:12;27.73;;;10.60;;
36383;SDS011;22418;51.210;6.976;2023-05-25T01:18:45;30.23;;;10.32;;
36383;SDS011;22418;51.210;6.976;2023-05-25T01:24:04;29.17;;;9.98;;
36383;SDS011;22418;51.210;6.976;2023-05-25T01:26:54;23.15;;;9.30;;
36383;SDS011;22418;51.210;6.976;2023-05-25T01:29:31;30.23;;;11.05;;
36383;SDS011;22418;51.210;6.976;2023-05-25T01:32:03;22.35;;;9.02;;
36383;SDS011;22418;51.210;6.976;2023-05-25T01:34:35;28.00;;;10.63;;
36383;SDS011;22418;51.210;6.976;2023-05-25T01:37:07;28.88;;;9.57;;
36383;SDS011;22418;51.210;6.976;2023-05-25T01:39:40;37.30;;;9.43;;
36383;SDS011;22418;51.210;6.976;2023-05-25T01:42:11;26.42;;;10.82;;
36383;SDS011;22418;51.210;6.976;2023-05-25T01:44:41;32.07;;;9.73;;
36383;SDS011;22418;51.210;6.976;2023-05-25T01:47:20;30.95;;;10.07;;
36383;SDS011;22418;51.210;6.976;2023-05-25T01:49:59;27.17;;;9.57;;
36383;SDS011;22418;51.210;6.976;2023-05-25T01:52:37;24.90;;;9.35;;
36383;SDS011;22418;51.210;6.976;2023-05-25T01:55:11;28.20;;;9.60;;
36383;SDS011;22418;51.210;6.976;2023-05-25T01:57:50;29.48;;;9.93;;
36383;SDS011;22418;51.210;6.976;2023-05-25T02:00:27;26.55;;;9.50;;
36383;SDS011;22418;51.210;6.976;2023-05-25T02:03:00;30.80;;;10.43;;
36383;SDS011;22418;51.210;6.976;2023-05-25T02:05:32;32.38;;;9.95;;
36383;SDS011;22418;51.210;6.976;2023-05-25T02:08:03;41.03;;;10.87;;
36383;SDS011;22418;51.210;6.976;2023-05-25T02:10:33;33.90;;;10.20;;
36383;SDS011;22418;51.210;6.976;2023-05-25T02:13:04;29.30;;;10.50;;
36383;SDS011;22418;51.210;6.976;2023-05-25T02:15:34;29.20;;;10.37;;
36383;SDS011;22418;51.210;6.976;2023-05-25T02:18:05;29.80;;;10.33;;
36383;SDS011;22418;51.210;6.976;2023-05-25T02:20:37;40.17;;;10.23;;
36383;SDS011;22418;51.210;6.976;2023-05-25T02:23:08;33.03;;;9.87;;
36383;SDS011;22418;51.210;6.976;2023-05-25T02:25:38;29.55;;;10.43;;
36383;SDS011;22418;51.210;6.976;2023-05-25T02:28:11;32.55;;;10.35;;
36383;SDS011;22418;51.210;6.976;2023-05-25T02:30:42;35.10;;;10.07;;
36383;SDS011;22418;51.210;6.976;2023-05-25T02:33:12;35.40;;;10.70;;
36383;SDS011;22418;51.210;6.976;2023-05-25T02:35:43;40.63;;;10.93;;
36383;SDS011;22418;51.210;6.976;2023-05-25T02:38:13;31.87;;;9.77;;
36383;SDS011;22418;51.210;6.976;2023-05-25T02:40:44;29.63;;;10.82;;
36383;SDS011;22418;51.210;6.976;2023-05-25T02:43:15;27.35;;;10.80;;
36383;SDS011;22418;51.210;6.976;2023-05-25T02:45:45;37.13;;;11.00;;
36383;SDS011;22418;51.210;6.976;2023-05-25T02:48:16;30.73;;;10.87;;
36383;SDS011;22418;51.210;6.976;2023-05-25T02:50:47;35.57;;;12.00;;
36383;SDS011;22418;51.210;6.976;2023-05-25T02:53:17;27.67;;;9.97;;
36383;SDS011;22418;51.210;6.976;2023-05-25T02:55:48;32.20;;;11.13;;
36383;SDS011;22418;51.210;6.976;2023-05-25T02:58:18;34.13;;;10.73;;
36383;SDS011;22418;51.210;6.976;2023-05-25T03:00:49;39.03;;;11.43;;
36383;SDS011;22418;51.210;6.976;2023-05-25T03:03:21;32.50;;;11.25;;
36383;SDS011;22418;51.210;6.976;2023-05-25T03:05:51;42.00;;;12.60;;
36383;SDS011;22418;51.210;6.976;2023-05-25T03:08:22;24.70;;;11.13;;
36383;SDS011;22418;51.210;6.976;2023-05-25T03:10:53;36.67;;;10.83;;
36383;SDS011;22418;51.210;6.976;2023-05-25T03:13:23;27.27;;;11.77;;
36383;SDS011;22418;51.210;6.976;2023-05-25T03:15:54;48.30;;;12.87;;
36383;SDS011;22418;51.210;6.976;2023-05-25T03:18:24;36.07;;;12.57;;
36383;SDS011;22418;51.210;6.976;2023-05-25T03:20:55;33.83;;;11.53;;
36383;SDS011;22418;51.210;6.976;2023-05-25T03:23:25;35.40;;;10.97;;
36383;SDS011;22418;51.210;6.976;2023-05-25T03:25:58;41.97;;;12.53;;
36383;SDS011;22418;51.210;6.976;2023-05-25T03:28:29;37.08;;;11.63;;
36383;SDS011;22418;51.210;6.976;2023-05-25T03:30:59;40.80;;;11.80;;
36383;SDS011;22418;51.210;6.976;2023-05-25T03:33:30;35.40;;;11.00;;
36383;SDS011;22418;51.210;6.976;2023-05-25T03:36:05;27.80;;;10.73;;
36383;SDS011;22418;51.210;6.976;2023-05-25T03:38:41;38.90;;;11.23;;
36383;SDS011;22418;51.210;6.976;2023-05-25T03:41:13;28.58;;;9.88;;
36383;SDS011;22418;51.210;6.976;2023-05-25T03:43:43;32.90;;;10.67;;
36383;SDS011;22418;51.210;6.976;2023-05-25T03:46:14;32.37;;;10.27;;
36383;SDS011;22418;51.210;6.976;2023-05-25T03:48:45;29.15;;;10.60;;
36383;SDS011;22418;51.210;6.976;2023-05-25T03:51:15;32.27;;;11.23;;
36383;SDS011;22418;51.210;6.976;2023-05-25T03:53:46;26.83;;;10.10;;
36383;SDS011;22418;51.210;6.976;2023-05-25T03:56:17;28.30;;;11.50;;
36383;SDS011;22418;51.210;6.976;2023-05-25T03:58:47;37.87;;;9.60;;
36383;SDS011;22418;51.210;6.976;2023-05-25T04:01:18;26.17;;;10.38;;
36383;SDS011;22418;51.210;6.976;2023-05-25T04:03:49;41.35;;;12.05;;
36383;SDS011;22418;51.210;6.976;2023-05-25T04:06:20;36.73;;;11.90;;
36383;SDS011;22418;51.210;6.976;2023-05-25T04:08:50;31.80;;;12.87;;
36383;SDS011;22418;51.210;6.976;2023-05-25T04:11:21;34.20;;;12.80;;
36383;SDS011;22418;51.210;6.976;2023-05-25T04:13:53;53.78;;;16.45;;
36383;SDS011;22418;51.210;6.976;2023-05-25T04:16:24;42.90;;;13.67;;
36383;SDS011;22418;51.210;6.976;2023-05-25T04:18:55;36.58;;;12.77;;
36383;SDS011;22418;51.210;6.976;2023-05-25T04:21:26;42.97;;;12.80;;
36383;SDS011;22418;51.210;6.976;2023-05-25T04:23:56;37.90;;;12.97;;
36383;SDS011;22418;51.210;6.976;2023-05-25T04:26:27;48.27;;;14.07;;
36383;SDS011;22418;51.210;6.976;2023-05-25T04:28:58;38.83;;;13.98;;
36383;SDS011;22418;51.210;6.976;2023-05-25T04:31:30;38.40;;;12.75;;
36383;SDS011;22418;51.210;6.976;2023-05-25T04:34:01;40.90;;;13.03;;
36383;SDS011;22418;51.210;6.976;2023-05-25T04:36:32;29.67;;;12.15;;
36383;SDS011;22418;51.210;6.976;2023-05-25T04:39:03;42.77;;;13.37;;
36383;SDS011;22418;51.210;6.976;2023-05-25T04:46:37;31.87;;;11.53;;
36383;SDS011;22418;51.210;6.976;2023-05-25T04:49:07;27.07;;;10.93;;
36383;SDS011;22418;51.210;6.976;2023-05-25T04:51:38;34.53;;;12.23;;
36383;SDS011;22418;51.210;6.976;2023-05-25T04:54:09;27.10;;;11.17;;
36383;SDS011;22418;51.210;6.976;2023-05-25T04:56:42;36.00;;;11.23;;
36383;SDS011;22418;51.210;6.976;2023-05-25T04:59:13;36.23;;;13.60;;
36383;SDS011;22418;51.210;6.976;2023-05-25T05:01:43;36.07;;;11.57;;
36383;SDS011;22418;51.210;6.976;2023-05-25T05:04:14;38.40;;;13.20;;
36383;SDS011;22418;51.210;6.976;2023-05-25T05:06:45;36.28;;;11.95;;
36383;SDS011;22418;51.210;6.976;2023-05-25T05:09:16;31.77;;;12.70;;
36383;SDS011;22418;51.210;6.976;2023-05-25T05:11:47;37.70;;;12.40;;
36383;SDS011;22418;51.210;6.976;2023-05-25T05:14:17;29.37;;;11.30;;
36383;SDS011;22418;51.210;6.976;2023-05-25T05:16:48;27.80;;;11.73;;
36383;SDS011;22418;51.210;6.976;2023-05-25T05:19:18;40.27;;;11.93;;
36383;SDS011;22418;51.210;6.976;2023-05-25T05:21:49;36.43;;;11.80;;
36383;SDS011;22418;51.210;6.976;2023-05-25T05:24:20;42.97;;;11.57;;
36383;SDS011;22418;51.210;6.976;2023-05-25T05:26:51;34.90;;;10.87;;
36383;SDS011;22418;51.210;6.976;2023-05-25T05:29:21;35.47;;;11.30;;
36383;SDS011;22418;51.210;6.976;2023-05-25T05:31:53;31.25;;;10.13;;
36383;SDS011;22418;51.210;6.976;2023-05-25T05:34:25;27.98;;;11.10;;
36383;SDS011;22418;51.210;6.976;2023-05-25T05:36:55;32.63;;;10.93;;
36383;SDS011;22418;51.210;6.976;2023-05-25T05:39:26;26.40;;;10.63;;
36383;SDS011;22418;51.210;6.976;2023-05-25T05:41:57;26.00;;;10.97;;
36383;SDS011;22418;51.210;6.976;2023-05-25T05:44:28;32.17;;;11.18;;
36383;SDS011;22418;51.210;6.976;2023-05-25T05:46:59;27.67;;;9.97;;
36383;SDS011;22418;51.210;6.976;2023-05-25T05:49:29;29.57;;;11.10;;
36383;SDS011;22418;51.210;6.976;2023-05-25T05:52:01;27.02;;;10.40;;
36383;SDS011;22418;51.210;6.976;2023-05-25T05:57:02;30.60;;;9.93;;
36383;SDS011;22418;51.210;6.976;2023-05-25T05:59:33;23.63;;;9.97;;
36383;SDS011;22418;51.210;6.976;2023-05-25T06:02:04;31.45;;;10.02;;
36383;SDS011;22418;51.210;6.976;2023-05-25T06:04:36;27.63;;;9.88;;
36383;SDS011;22418;51.210;6.976;2023-05-25T06:07:07;27.33;;;9.95;;
36383;SDS011;22418;51.210;6.976;2023-05-25T06:09:37;33.87;;;9.97;;
36383;SDS011;22418;51.210;6.976;2023-05-25T06:12:08;28.23;;;10.02;;
36383;SDS011;22418;51.210;6.976;2023-05-25T06:14:38;23.65;;;9.45;;
36383;SDS011;22418;51.210;6.976;2023-05-25T06:17:09;25.20;;;8.90;;
36383;SDS011;22418;51.210;6.976;2023-05-25T06:19:40;31.00;;;9.27;;
36383;SDS011;22418;51.210;6.976;2023-05-25T06:22:11;26.17;;;8.25;;
36383;SDS011;22418;51.210;6.976;2023-05-25T06:24:41;22.67;;;8.85;;
36383;SDS011;22418;51.210;6.976;2023-05-25T06:29:42;17.13;;;7.63;;
36383;SDS011;22418;51.210;6.976;2023-05-25T06:34:43;24.90;;;9.70;;
36383;SDS011;22418;51.210;6.976;2023-05-25T06:39:45;21.65;;;9.38;;
36383;SDS011;22418;51.210;6.976;2023-05-25T06:44:46;19.47;;;8.73;;
36383;SDS011;22418;51.210;6.976;2023-05-25T06:47:17;24.77;;;9.63;;
36383;SDS011;22418;51.210;6.976;2023-05-25T06:49:48;18.95;;;8.15;;
36383;SDS011;22418;51.210;6.976;2023-05-25T06:52:18;19.95;;;8.82;;
36383;SDS011;22418;51.210;6.976;2023-05-25T06:54:49;30.13;;;9.15;;
36383;SDS011;22418;51.210;6.976;2023-05-25T06:59:50;23.67;;;9.50;;
36383;SDS011;22418;51.210;6.976;2023-05-25T07:04:51;23.40;;;9.67;;
36383;SDS011;22418;51.210;6.976;2023-05-25T07:09:55;20.13;;;9.27;;
36383;SDS011;22418;51.210;6.976;2023-05-25T07:12:26;17.83;;;8.57;;
36383;SDS011;22418;51.210;6.976;2023-05-25T07:14:57;20.98;;;9.88;;
36383;SDS011;22418;51.210;6.976;2023-05-25T07:19:58;22.33;;;8.03;;
36383;SDS011;22418;51.210;6.976;2023-05-25T07:22:28;27.73;;;9.77;;
36383;SDS011;22418;51.210;6.976;2023-05-25T07:24:59;23.33;;;9.25;;
36383;SDS011;22418;51.210;6.976;2023-05-25T07:27:29;21.38;;;8.73;;
36383;SDS011;22418;51.210;6.976;2023-05-25T07:30:00;24.70;;;10.05;;
36383;SDS011;22418;51.210;6.976;2023-05-25T07:32:31;25.23;;;9.70;;
36383;SDS011;22418;51.210;6.976;2023-05-25T07:35:01;21.37;;;9.47;;
36383;SDS011;22418;51.210;6.976;2023-05-25T07:37:32;23.35;;;9.48;;
36383;SDS011;22418;51.210;6.976;2023-05-25T07:40:03;25.30;;;10.23;;
36383;SDS011;22418;51.210;6.976;2023-05-25T07:42:35;23.55;;;9.82;;
36383;SDS011;22418;51.210;6.976;2023-05-25T07:45:05;25.10;;;10.70;;
36383;SDS011;22418;51.210;6.976;2023-05-25T07:47:36;25.83;;;10.32;;
36383;SDS011;22418;51.210;6.976;2023-05-25T07:50:07;26.73;;;10.10;;
36383;SDS011;22418;51.210;6.976;2023-05-25T07:52:37;29.25;;;10.80;;
36383;SDS011;22418;51.210;6.976;2023-05-25T07:55:08;27.80;;;10.60;;
36383;SDS011;22418;51.210;6.976;2023-05-25T07:57:39;27.05;;;10.30;;
36383;SDS011;22418;51.210;6.976;2023-05-25T08:00:10;29.93;;;10.60;;
36383;SDS011;22418;51.210;6.976;2023-05-25T08:02:41;19.80;;;8.63;;
36383;SDS011;22418;51.210;6.976;2023-05-25T08:05:11;22.07;;;9.80;;
36383;SDS011;22418;51.210;6.976;2023-05-25T08:07:43;24.73;;;8.73;;
36383;SDS011;22418;51.210;6.976;2023-05-25T08:10:15;28.00;;;10.35;;
36383;SDS011;22418;51.210;6.976;2023-05-25T08:12:45;18.93;;;7.97;;
36383;SDS011;22418;51.210;6.976;2023-05-25T08:15:16;21.83;;;9.60;;
36383;SDS011;22418;51.210;6.976;2023-05-25T08:17:47;27.23;;;8.53;;
36383;SDS011;22418;51.210;6.976;2023-05-25T08:20:19;25.40;;;8.40;;
36383;SDS011;22418;51.210;6.976;2023-05-25T08:22:50;25.47;;;8.13;;
36383;SDS011;22418;51.210;6.976;2023-05-25T08:25:22;28.52;;;9.50;;
36383;SDS011;22418;51.210;6.976;2023-05-25T08:27:53;18.43;;;8.57;;
36383;SDS011;22418;51.210;6.976;2023-05-25T08:30:23;24.90;;;8.53;;
36383;SDS011;22418;51.210;6.976;2023-05-25T08:32:54;22.07;;;8.53;;
36383;SDS011;22418;51.210;6.976;2023-05-25T08:35:24;26.33;;;8.87;;
36383;SDS011;22418;51.210;6.976;2023-05-25T08:37:55;21.57;;;7.87;;
36383;SDS011;22418;51.210;6.976;2023-05-25T08:40:26;24.83;;;9.77;;
36383;SDS011;22418;51.210;6.976;2023-05-25T08:42:59;25.25;;;9.23;;
36383;SDS011;22418;51.210;6.976;2023-05-25T08:45:30;29.00;;;10.50;;
36383;SDS011;22418;51.210;6.976;2023-05-25T08:48:00;22.97;;;9.97;;
36383;SDS011;22418;51.210;6.976;2023-05-25T08:50:37;25.65;;;10.25;;
36383;SDS011;22418;51.210;6.976;2023-05-25T08:53:08;26.23;;;11.02;;
36383;SDS011;22418;51.210;6.976;2023-05-25T08:55:40;21.08;;;9.25;;
36383;SDS011;22418;51.210;6.976;2023-05-25T08:58:17;20.77;;;9.43;;
36383;SDS011;22418;51.210;6.976;2023-05-25T09:00:54;24.00;;;10.10;;
36383;SDS011;22418;51.210;6.976;2023-05-25T09:03:27;26.33;;;11.13;;
36383;SDS011;22418;51.210;6.976;2023-05-25T09:05:59;23.48;;;10.55;;
36383;SDS011;22418;51.210;6.976;2023-05-25T09:08:30;23.30;;;12.75;;
36383;SDS011;22418;51.210;6.976;2023-05-25T09:11:01;22.38;;;11.75;;
36383;SDS011;22418;51.210;6.976;2023-05-25T09:16:04;27.47;;;11.00;;
36383;SDS011;22418;51.210;6.976;2023-05-25T09:18:35;30.65;;;10.90;;
36383;SDS011;22418;51.210;6.976;2023-05-25T09:21:05;24.20;;;10.93;;
36383;SDS011;22418;51.210;6.976;2023-05-25T09:23:36;31.63;;;14.00;;
36383;SDS011;22418;51.210;6.976;2023-05-25T09:26:07;23.45;;;13.10;;
36383;SDS011;22418;51.210;6.976;2023-05-25T09:28:44;24.33;;;11.87;;
36383;SDS011;22418;51.210;6.976;2023-05-25T09:31:16;28.70;;;13.52;;
36383;SDS011;22418;51.210;6.976;2023-05-25T09:33:47;28.30;;;15.23;;
36383;SDS011;22418;51.210;6.976;2023-05-25T09:36:17;31.07;;;15.53;;
36383;SDS011;22418;51.210;6.976;2023-05-25T09:38:54;30.52;;;15.45;;
36383;SDS011;22418;51.210;6.976;2023-05-25T09:41:25;30.95;;;15.35;;
36383;SDS011;22418;51.210;6.976;2023-05-25T09:43:58;40.00;;;15.35;;
36383;SDS011;22418;51.210;6.976;2023-05-25T09:46:28;32.17;;;14.43;;
36383;SDS011;22418;51.210;6.976;2023-05-25T09:49:01;31.15;;;14.82;;
36383;SDS011;22418;51.210;6.976;2023-05-25T09:51:33;27.05;;;14.20;;
36383;SDS011;22418;51.210;6.976;2023-05-25T09:54:07;29.60;;;15.02;;
36383;SDS011;22418;51.210;6.976;2023-05-25T09:56:39;37.25;;;16.30;;
36383;SDS011;22418;51.210;6.976;2023-05-25T09:59:11;27.65;;;16.63;;
36383;SDS011;22418;51.210;6.976;2023-05-25T10:01:41;28.90;;;16.40;;
36383;SDS011;22418;51.210;6.976;2023-05-25T10:04:14;27.23;;;14.80;;
36383;SDS011;22418;51.210;6.976;2023-05-25T10:06:48;27.05;;;14.25;;
36383;SDS011;22418;51.210;6.976;2023-05-25T10:09:21;26.40;;;14.00;;
36383;SDS011;22418;51.210;6.976;2023-05-25T10:11:57;28.17;;;12.00;;
36383;SDS011;22418;51.210;6.976;2023-05-25T10:14:29;28.13;;;12.23;;
36383;SDS011;22418;51.210;6.976;2023-05-25T10:17:00;21.00;;;10.35;;
36383;SDS011;22418;51.210;6.976;2023-05-25T10:19:37;18.10;;;8.35;;
36383;SDS011;22418;51.210;6.976;2023-05-25T10:22:15;19.33;;;8.40;;
36383;SDS011;22418;51.210;6.976;2023-05-25T10:25:12;21.42;;;7.70;;
36383;SDS011;22418;51.210;6.976;2023-05-25T10:27:54;20.50;;;6.78;;
36383;SDS011;22418;51.210;6.976;2023-05-25T10:30:29;16.65;;;6.40;;
36383;SDS011;22418;51.210;6.976;2023-05-25T10:33:00;22.27;;;7.60;;
36383;SDS011;22418;51.210;6.976;2023-05-25T10:35:32;29.48;;;6.72;;
36383;SDS011;22418;51.210;6.976;2023-05-25T10:38:03;13.68;;;5.93;;
36383;SDS011;22418;51.210;6.976;2023-05-25T10:40:35;16.05;;;6.50;;
36383;SDS011;22418;51.210;6.976;2023-05-25T10:43:07;15.13;;;5.72;;
36383;SDS011;22418;51.210;6.976;2023-05-25T10:45:38;19.77;;;5.90;;
36383;SDS011;22418;51.210;6.976;2023-05-25T10:48:10;19.20;;;6.18;;
36383;SDS011;22418;51.210;6.976;2023-05-25T10:50:41;15.07;;;6.13;;
36383;SDS011;22418;51.210;6.976;2023-05-25T10:53:19;11.93;;;5.45;;
36383;SDS011;22418;51.210;6.976;2023-05-25T10:58:25;16.38;;;6.45;;
36383;SDS011;22418;51.210;6.976;2023-05-25T11:00:57;15.43;;;6.70;;
36383;SDS011;22418;51.210;6.976;2023-05-25T11:06:14;19.75;;;6.63;;
36383;SDS011;22418;51.210;6.976;2023-05-25T11:08:47;13.40;;;5.55;;
36383;SDS011;22418;51.210;6.976;2023-05-25T11:11:18;22.98;;;7.65;;
36383;SDS011;22418;51.210;6.976;2023-05-25T11:13:49;12.68;;;5.82;;
36383;SDS011;22418;51.210;6.976;2023-05-25T11:19:13;15.45;;;6.20;;
36383;SDS011;22418;51.210;6.976;2023-05-25T11:21:44;19.40;;;5.82;;
36383;SDS011;22418;51.210;6.976;2023-05-25T11:24:16;18.67;;;5.23;;
36383;SDS011;22418;51.210;6.976;2023-05-25T11:26:53;15.55;;;5.53;;
36383;SDS011;22418;51.210;6.976;2023-05-25T11:29:30;23.08;;;6.68;;
36383;SDS011;22418;51.210;6.976;2023-05-25T11:32:01;17.30;;;4.90;;
36383;SDS011;22418;51.210;6.976;2023-05-25T11:34:32;18.38;;;5.53;;
36383;SDS011;22418;51.210;6.976;2023-05-25T11:37:02;18.33;;;6.27;;
36383;SDS011;22418;51.210;6.976;2023-05-25T11:39:33;15.43;;;6.25;;
36383;SDS011;22418;51.210;6.976;2023-05-25T11:42:04;13.97;;;6.00;;
36383;SDS011;22418;51.210;6.976;2023-05-25T11:44:40;14.25;;;6.10;;
36383;SDS011;22418;51.210;6.976;2023-05-25T11:47:11;18.60;;;6.57;;
36383;SDS011;22418;51.210;6.976;2023-05-25T11:49:43;14.55;;;7.18;;
36383;SDS011;22418;51.210;6.976;2023-05-25T11:52:16;22.27;;;7.63;;
36383;SDS011;22418;51.210;6.976;2023-05-25T11:54:48;16.98;;;6.18;;
36383;SDS011;22418;51.210;6.976;2023-05-25T11:57:19;18.90;;;6.70;;
36383;SDS011;22418;51.210;6.976;2023-05-25T11:59:55;13.90;;;6.93;;
36383;SDS011;22418;51.210;6.976;2023-05-25T12:02:35;17.13;;;6.25;;
36383;SDS011;22418;51.210;6.976;2023-05-25T12:05:07;19.15;;;6.10;;
36383;SDS011;22418;51.210;6.976;2023-05-25T12:07:41;21.27;;;6.60;;
36383;SDS011;22418;51.210;6.976;2023-05-25T12:10:14;14.45;;;6.25;;
36383;SDS011;22418;51.210;6.976;2023-05-25T12:12:46;20.23;;;7.20;;
36383;SDS011;22418;51.210;6.976;2023-05-25T12:15:21;14.77;;;7.45;;
36383;SDS011;22418;51.210;6.976;2023-05-25T12:17:53;15.40;;;6.68;;
36383;SDS011;22418;51.210;6.976;2023-05-25T12:22:55;17.43;;;7.90;;
36383;SDS011;22418;51.210;6.976;2023-05-25T12:25:27;22.02;;;7.10;;
36383;SDS011;22418;51.210;6.976;2023-05-25T12:28:10;21.50;;;7.70;;
36383;SDS011;22418;51.210;6.976;2023-05-25T12:30:41;19.02;;;7.93;;
36383;SDS011;22418;51.210;6.976;2023-05-25T12:33:12;18.00;;;7.43;;
36383;SDS011;22418;51.210;6.976;2023-05-25T12:35:45;19.35;;;7.45;;
36383;SDS011;22418;51.210;6.976;2023-05-25T12:38:17;19.30;;;7.20;;
36383;SDS011;22418;51.210;6.976;2023-05-25T12:41:03;15.23;;;6.82;;
36383;SDS011;22418;51.210;6.976;2023-05-25T12:43:36;21.05;;;7.85;;
36383;SDS011;22418;51.210;6.976;2023-05-25T12:46:22;19.50;;;7.63;;
36383;SDS011;22418;51.210;6.976;2023-05-25T12:48:56;16.98;;;7.88;;
36383;SDS011;22418;51.210;6.976;2023-05-25T12:51:36;21.47;;;9.60;;
36383;SDS011;22418;51.210;6.976;2023-05-25T12:54:07;15.48;;;8.40;;
36383;SDS011;22418;51.210;6.976;2023-05-25T12:57:11;22.63;;;8.73;;
36383;SDS011;22418;51.210;6.976;2023-05-25T12:59:35;14.77;;;8.40;;
36383;SDS011;22418;51.210;6.976;2023-05-25T13:02:07;19.48;;;7.65;;
36383;SDS011;22418;51.210;6.976;2023-05-25T13:04:38;18.10;;;7.65;;
36383;SDS011;22418;51.210;6.976;2023-05-25T13:07:10;17.25;;;8.05;;
36383;SDS011;22418;51.210;6.976;2023-05-25T13:09:41;16.90;;;7.65;;
36383;SDS011;22418;51.210;6.976;2023-05-25T13:12:12;17.67;;;7.40;;
36383;SDS011;22418;51.210;6.976;2023-05-25T13:14:42;19.03;;;7.40;;
36383;SDS011;22418;51.210;6.976;2023-05-25T13:17:13;19.77;;;7.97;;
36383;SDS011;22418;51.210;6.976;2023-05-25T13:19:44;20.67;;;9.10;;
36383;SDS011;22418;51.210;6.976;2023-05-25T13:22:14;18.73;;;8.27;;
36383;SDS011;22418;51.210;6.976;2023-05-25T13:24:45;19.07;;;8.50;;
36383;SDS011;22418;51.210;6.976;2023-05-25T13:27:15;19.20;;;8.37;;
36383;SDS011;22418;51.210;6.976;2023-05-25T13:29:46;22.30;;;8.17;;
36383;SDS011;22418;51.210;6.976;2023-05-25T13:32:16;21.83;;;9.10;;
36383;SDS011;22418;51.210;6.976;2023-05-25T13:34:47;27.07;;;10.27;;
36383;SDS011;22418;51.210;6.976;2023-05-25T13:37:20;22.42;;;9.02;;
36383;SDS011;22418;51.210;6.976;2023-05-25T13:39:51;17.60;;;9.03;;
36383;SDS011;22418;51.210;6.976;2023-05-25T13:42:21;24.30;;;10.70;;
36383;SDS011;22418;51.210;6.976;2023-05-25T13:44:52;20.70;;;9.97;;
36383;SDS011;22418;51.210;6.976;2023-05-25T13:47:22;22.77;;;8.77;;
36383;SDS011;22418;51.210;6.976;2023-05-25T13:49:53;19.47;;;8.77;;
36383;SDS011;22418;51.210;6.976;2023-05-25T13:52:23;21.33;;;7.27;;
36383;SDS011;22418;51.210;6.976;2023-05-25T13:54:55;15.80;;;6.82;;
36383;SDS011;22418;51.210;6.976;2023-05-25T13:57:26;22.17;;;9.47;;
36383;SDS011;22418;51.210;6.976;2023-05-25T13:59:56;21.53;;;8.53;;
36383;SDS011;22418;51.210;6.976;2023-05-25T14:02:27;15.73;;;8.33;;
36383;SDS011;22418;51.210;6.976;2023-05-25T14:05:00;16.25;;;8.20;;
36383;SDS011;22418;51.210;6.976;2023-05-25T14:07:31;16.93;;;8.37;;
36383;SDS011;22418;51.210;6.976;2023-05-25T14:10:02;18.77;;;7.27;;
36383;SDS011;22418;51.210;6.976;2023-05-25T14:12:32;13.50;;;6.90;;
36383;SDS011;22418;51.210;6.976;2023-05-25T14:15:03;20.10;;;7.73;;
36383;SDS011;22418;51.210;6.976;2023-05-25T14:17:35;22.02;;;7.43;;
36383;SDS011;22418;51.210;6.976;2023-05-25T14:20:05;21.10;;;8.17;;
36383;SDS011;22418;51.210;6.976;2023-05-25T14:22:36;18.10;;;7.40;;
36383;SDS011;22418;51.210;6.976;2023-05-25T14:25:07;16.77;;;7.43;;
36383;SDS011;22418;51.210;6.976;2023-05-25T14:27:38;15.33;;;7.20;;
36383;SDS011;22418;51.210;6.976;2023-05-25T14:30:08;11.57;;;6.07;;
36383;SDS011;22418;51.210;6.976;2023-05-25T14:32:39;26.50;;;8.52;;
36383;SDS011;22418;51.210;6.976;2023-05-25T14:35:10;17.20;;;7.63;;
36383;SDS011;22418;51.210;6.976;2023-05-25T14:37:40;20.83;;;7.27;;
36383;SDS011;22418;51.210;6.976;2023-05-25T14:40:11;18.43;;;7.73;;
36383;SDS011;22418;51.210;6.976;2023-05-25T14:42:42;17.65;;;7.30;;
36383;SDS011;22418;51.210;6.976;2023-05-25T14:45:12;17.90;;;7.47;;
36383;SDS011;22418;51.210;6.976;2023-05-25T14:47:43;16.13;;;7.73;;
36383;SDS011;22418;51.210;6.976;2023-05-25T14:50:14;14.53;;;7.20;;
36383;SDS011;22418;51.210;6.976;2023-05-25T14:52:44;19.87;;;6.97;;
36383;SDS011;22418;51.210;6.976;2023-05-25T14:55:15;16.97;;;7.43;;
36383;SDS011;22418;51.210;6.976;2023-05-25T14:57:46;19.60;;;7.40;;
36383;SDS011;22418;51.210;6.976;2023-05-25T15:00:16;19.60;;;8.47;;
36383;SDS011;22418;51.210;6.976;2023-05-25T15:02:47;14.85;;;8.20;;
36383;SDS011;22418;51.210;6.976;2023-05-25T15:05:18;21.63;;;8.33;;
36383;SDS011;22418;51.210;6.976;2023-05-25T15:07:48;18.20;;;7.87;;
36383;SDS011;22418;51.210;6.976;2023-05-25T15:10:19;19.47;;;8.00;;
36383;SDS011;22418;51.210;6.976;2023-05-25T15:12:49;16.33;;;7.67;;
36383;SDS011;22418;51.210;6.976;2023-05-25T15:15:20;13.60;;;6.63;;
36383;SDS011;22418;51.210;6.976;2023-05-25T15:17:50;22.87;;;8.17;;
36383;SDS011;22418;51.210;6.976;2023-05-25T15:20:21;17.80;;;7.67;;
36383;SDS011;22418;51.210;6.976;2023-05-25T15:22:51;19.60;;;7.97;;
36383;SDS011;22418;51.210;6.976;2023-05-25T15:25:22;17.42;;;6.95;;
36383;SDS011;22418;51.210;6.976;2023-05-25T15:27:53;20.67;;;7.20;;
36383;SDS011;22418;51.210;6.976;2023-05-25T15:30:23;19.43;;;7.40;;
36383;SDS011;22418;51.210;6.976;2023-05-25T15:32:56;23.58;;;7.43;;
36383;SDS011;22418;51.210;6.976;2023-05-25T15:35:27;16.20;;;7.23;;
36383;SDS011;22418;51.210;6.976;2023-05-25T15:38:01;20.70;;;6.97;;
36383;SDS011;22418;51.210;6.976;2023-05-25T15:40:31;20.83;;;6.17;;